Time;durP1;ratioP1;P1;durP2;ratioP2;P2;SDS_P1;SDS_P2;PMS_P1;PMS_P2;Temp;Humidity;BMP_temperature;BMP_pressure;BME280_temperature;BME280_humidity;BME280_pressure;Samples;Min_cycle;Max_cycle;Signal;HPM_P1;HPM_P2
2021/10/19 00:02:04;;;;;;;3.25;1.80;;;;;;;2.87;72.98;101287.94;5012958;28;20049;-66
2021/10/19 00:04:30;;;;;;;3.53;1.67;;;;;;;2.91;73.53;101292.09;5011880;28;20034;-67
2021/10/19 00:06:55;;;;;;;2.70;1.60;;;;;;;2.98;73.33;101303.91;5012588;28;20124;-65
2021/10/19 00:09:21;;;;;;;1.40;1.30;;;;;;;2.90;74.05;101293.03;5012560;28;20513;-65
2021/10/19 00:11:46;;;;;;;1.73;1.27;;;;;;;2.87;73.82;101294.06;5012290;28;20034;-66
2021/10/19 00:14:11;;;;;;;1.63;1.40;;;;;;;2.99;73.66;101318.75;5012478;28;20046;-65
2021/10/19 00:16:37;;;;;;;2.50;1.70;;;;;;;2.97;74.00;101299.56;5012245;28;20448;-65
2021/10/19 00:19:04;;;;;;;1.67;1.30;;;;;;;2.97;73.85;101315.38;5011767;28;20462;-65
2021/10/19 00:21:30;;;;;;;1.40;1.20;;;;;;;3.06;74.03;101325.28;5011956;28;20513;-65
2021/10/19 00:23:55;;;;;;;1.47;1.33;;;;;;;3.00;73.80;101315.16;5012192;28;20279;-66
2021/10/19 00:26:21;;;;;;;1.70;1.40;;;;;;;3.02;73.77;101303.59;5012187;28;20080;-66
2021/10/19 00:28:46;;;;;;;2.37;1.27;;;;;;;3.16;73.96;101320.25;5012312;28;20041;-67
2021/10/19 00:31:12;;;;;;;1.80;1.70;;;;;;;3.08;73.81;101304.97;5011911;28;20037;-64
2021/10/19 00:33:37;;;;;;;1.20;1.10;;;;;;;3.20;74.15;101322.59;5011758;28;20069;-65
2021/10/19 00:36:03;;;;;;;4.53;1.90;;;;;;;3.15;74.18;101303.59;5010458;28;20058;-65
2021/10/19 00:38:28;;;;;;;1.37;1.10;;;;;;;3.24;74.06;101318.81;5013561;28;20041;-67
2021/10/19 00:40:53;;;;;;;1.90;1.70;;;;;;;3.25;73.83;101315.22;5015742;28;20038;-67
2021/10/19 00:43:20;;;;;;;1.50;1.40;;;;;;;3.29;74.36;101316.72;5015871;28;20030;-69
2021/10/19 00:45:45;;;;;;;1.87;1.70;;;;;;;3.26;74.10;101306.38;5015849;28;20065;-68
2021/10/19 00:48:15;;;;;;;2.07;1.63;;;;;;;3.33;73.81;101318.19;5015299;28;20833;-66
2021/10/19 00:50:41;;;;;;;3.77;2.23;;;;;;;3.24;74.15;101302.19;5015593;28;20103;-66
2021/10/19 00:53:07;;;;;;;3.63;1.80;;;;;;;3.23;74.21;101301.34;5015510;28;20301;-66
2021/10/19 00:55:33;;;;;;;2.17;1.97;;;;;;;3.24;74.28;101303.03;5015410;28;20344;-65
2021/10/19 00:58:00;;;;;;;2.03;1.57;;;;;;;3.14;75.04;101301.91;5015423;28;20517;-66
2021/10/19 01:00:25;;;;;;;2.67;1.60;;;;;;;3.19;75.28;101307.75;5015934;28;20472;-68
2021/10/19 01:02:50;;;;;;;2.80;1.30;;;;;;;3.05;75.44;101298.13;5016583;28;20339;-66
2021/10/19 01:05:16;;;;;;;2.73;1.60;;;;;;;3.18;75.31;101313.97;5016597;28;20029;-67
2021/10/19 01:07:43;;;;;;;3.10;2.37;;;;;;;3.18;75.64;101319.22;5015556;28;20481;-66
2021/10/19 01:10:09;;;;;;;2.00;1.70;;;;;;;3.21;75.57;101321.66;5015896;28;20125;-67
2021/10/19 01:12:35;;;;;;;5.30;3.00;;;;;;;3.17;76.28;101314.88;5015876;28;20324;-66
2021/10/19 01:15:06;;;;;;;2.10;1.70;;;;;;;3.13;75.90;101310.75;5015156;28;20767;-66
2021/10/19 01:17:32;;;;;;;3.27;1.90;;;;;;;3.08;75.91;101302.34;5014745;28;20034;-65
2021/10/19 01:19:57;;;;;;;1.67;1.57;;;;;;;3.21;76.21;101319.03;5013930;28;20283;-67
2021/10/19 01:22:22;;;;;;;3.63;1.87;;;;;;;3.17;76.16;101312.25;5013467;28;20045;-66
2021/10/19 01:24:48;;;;;;;1.63;1.47;;;;;;;3.17;76.79;101320.13;5014529;28;20038;-68
2021/10/19 01:27:13;;;;;;;2.83;1.60;;;;;;;3.03;76.90;101293.91;5014930;28;20463;-68
2021/10/19 01:29:38;;;;;;;2.37;2.07;;;;;;;3.06;76.45;101306.84;5014431;28;20034;-65
2021/10/19 01:32:04;;;;;;;2.23;1.60;;;;;;;3.01;76.80;101316.84;5013020;28;20041;-66
2021/10/19 01:34:34;;;;;;;2.67;1.60;;;;;;;2.82;76.86;101290.88;5014265;28;20112;-65
2021/10/19 01:37:01;;;;;;;1.80;1.70;;;;;;;2.97;77.35;101320.63;5014094;28;20188;-70
2021/10/19 01:39:26;;;;;;;2.10;1.90;;;;;;;2.90;77.38;101312.28;5012881;28;20423;-67
2021/10/19 01:41:52;;;;;;;2.40;2.20;;;;;;;3.00;77.15;101337.06;5014146;28;20703;-67
2021/10/19 01:44:17;;;;;;;2.17;1.97;;;;;;;2.92;77.48;101312.19;5014066;28;20029;-66
2021/10/19 01:46:42;;;;;;;3.00;1.60;;;;;;;2.94;77.15;101320.84;5013974;28;20033;-67
2021/10/19 01:49:08;;;;;;;3.10;1.90;;;;;;;2.79;77.67;101291.94;5013702;28;20040;-66
2021/10/19 01:51:34;;;;;;;2.00;1.90;;;;;;;3.03;77.38;101326.31;5013901;28;20505;-66
2021/10/19 01:53:59;;;;;;;2.47;1.90;;;;;;;3.00;76.90;101328.31;5014201;28;20061;-67
2021/10/19 01:56:24;;;;;;;2.13;1.70;;;;;;;3.04;77.47;101327.16;5013848;28;20037;-65
2021/10/19 01:58:50;;;;;;;2.07;1.63;;;;;;;3.04;77.60;101333.28;5012545;28;20044;-64
2021/10/19 02:01:15;;;;;;;1.97;1.87;;;;;;;3.00;77.65;101328.31;5013784;28;20097;-69
2021/10/19 02:03:41;;;;;;;3.00;1.97;;;;;;;2.94;77.89;101337.47;5014109;28;20092;-65
2021/10/19 02:06:06;;;;;;;2.17;1.97;;;;;;;2.86;78.16;101328.34;5013800;28;20038;-67
2021/10/19 02:08:33;;;;;;;2.67;2.43;;;;;;;2.92;78.13;101333.25;5013807;28;20065;-65
2021/10/19 02:10:59;;;;;;;2.40;1.93;;;;;;;2.91;77.75;101334.19;5013992;28;20037;-65
2021/10/19 02:13:24;;;;;;;3.97;1.77;;;;;;;2.76;77.89;101314.97;5013559;28;20280;-68
2021/10/19 02:15:50;;;;;;;3.73;2.40;;;;;;;2.82;78.24;101326.88;5013637;28;20037;-67
2021/10/19 02:18:15;;;;;;;2.17;1.83;;;;;;;2.85;77.67;101338.03;5013597;28;20080;-66
2021/10/19 02:20:41;;;;;;;2.33;2.13;;;;;;;2.80;77.92;101335.69;5013695;28;20172;-66
2021/10/19 02:23:07;;;;;;;1.83;1.70;;;;;;;2.74;77.53;101325.59;5013354;28;20030;-66
2021/10/19 02:25:32;;;;;;;2.57;2.13;;;;;;;2.75;77.79;101340.41;5013414;28;20386;-69
2021/10/19 02:27:58;;;;;;;2.03;1.93;;;;;;;2.79;77.81;101351.59;5014408;28;20284;-66
2021/10/19 02:30:25;;;;;;;2.80;1.80;;;;;;;2.85;77.49;101338.03;5013488;28;20034;-66
2021/10/19 02:32:51;;;;;;;3.27;2.00;;;;;;;2.95;77.66;101341.78;5013583;28;20116;-65
2021/10/19 02:35:18;;;;;;;3.17;2.50;;;;;;;2.98;77.34;101335.47;5013331;28;20352;-68
2021/10/19 02:37:45;;;;;;;2.47;2.03;;;;;;;2.99;77.16;101334.53;5013349;28;20293;-66
2021/10/19 02:40:12;;;;;;;2.10;1.90;;;;;;;3.11;76.79;101345.06;5014894;28;20269;-67
2021/10/19 02:42:39;;;;;;;1.70;1.60;;;;;;;2.93;77.02;101312.09;5015568;28;20269;-67
2021/10/19 02:45:06;;;;;;;2.10;1.90;;;;;;;3.16;77.32;101351.81;5013024;28;20351;-70
2021/10/19 02:47:31;;;;;;;5.63;1.90;;;;;;;3.11;76.57;101336.34;5011833;28;20791;-64
2021/10/19 02:49:59;;;;;;;4.43;2.13;;;;;;;3.13;76.82;101346.75;5013230;28;20293;-65
2021/10/19 02:52:24;;;;;;;2.87;1.90;;;;;;;3.13;76.91;101347.59;5012781;28;20048;-66
2021/10/19 02:54:51;;;;;;;2.67;1.67;;;;;;;2.85;76.56;101303.00;5012965;28;20265;-64
2021/10/19 02:57:18;;;;;;;3.03;1.93;;;;;;;3.13;76.71;101358.13;5012900;28;20052;-65
2021/10/19 02:59:43;;;;;;;2.10;1.80;;;;;;;3.10;76.82;101353.06;5011561;28;20407;-67
2021/10/19 03:02:09;;;;;;;2.97;1.90;;;;;;;3.11;76.79;101349.50;5013183;28;20312;-65
2021/10/19 03:04:34;;;;;;;2.37;1.87;;;;;;;3.10;76.75;101358.34;5012995;28;20121;-68
2021/10/19 03:06:59;;;;;;;2.20;1.80;;;;;;;3.08;76.75;101360.22;5013128;28;20038;-64
2021/10/19 03:09:25;;;;;;;2.20;1.80;;;;;;;2.95;76.58;101343.56;5012488;28;20069;-65
2021/10/19 03:11:51;;;;;;;2.70;1.93;;;;;;;2.95;76.99;101338.31;5011047;28;20038;-66
2021/10/19 03:14:16;;;;;;;1.77;1.50;;;;;;;3.04;76.48;101358.75;5012234;28;20045;-64
2021/10/19 03:16:41;;;;;;;3.00;2.17;;;;;;;2.95;76.69;101344.41;5012532;28;20037;-66
2021/10/19 03:19:07;;;;;;;1.63;1.53;;;;;;;2.99;76.14;101353.78;5012391;28;20552;-64
2021/10/19 03:21:32;;;;;;;1.90;1.60;;;;;;;2.94;76.30;101357.66;5012486;28;20477;-64
2021/10/19 03:23:57;;;;;;;2.20;1.57;;;;;;;2.91;75.97;101352.59;5012833;28;20083;-65
2021/10/19 03:26:23;;;;;;;2.00;1.80;;;;;;;2.93;76.14;101358.59;5012259;28;20033;-65
2021/10/19 03:28:48;;;;;;;2.93;1.60;;;;;;;2.91;75.94;101352.59;5011937;28;20045;-68
2021/10/19 03:31:14;;;;;;;2.80;1.70;;;;;;;2.90;76.23;101345.66;5011180;28;20540;-66
2021/10/19 03:33:40;;;;;;;2.03;1.60;;;;;;;2.98;76.10;101364.41;5012311;28;20080;-66
2021/10/19 03:36:06;;;;;;;2.00;1.80;;;;;;;2.94;75.75;101368.19;5012369;28;20487;-68
2021/10/19 03:38:34;;;;;;;1.83;1.73;;;;;;;2.96;76.21;101366.31;5012276;28;20378;-68
2021/10/19 03:41:00;;;;;;;2.63;2.10;;;;;;;2.89;75.56;101363.22;5012074;28;20260;-68
2021/10/19 03:43:25;;;;;;;1.60;1.50;;;;;;;2.53;76.20;101305.91;5011871;28;20034;-66
2021/10/19 03:45:50;;;;;;;2.83;1.77;;;;;;;2.97;75.92;101368.00;5012288;28;20125;-67
2021/10/19 03:48:16;;;;;;;1.90;1.53;;;;;;;3.00;75.37;101371.25;5012201;28;20080;-65
2021/10/19 03:50:41;;;;;;;1.93;1.73;;;;;;;2.86;75.33;101363.41;5010921;28;20041;-68
2021/10/19 03:53:09;;;;;;;2.87;1.97;;;;;;;3.02;75.54;101371.16;4994296;28;20124;-67
2021/10/19 03:55:35;;;;;;;3.40;2.27;;;;;;;3.06;75.61;101367.38;5011865;28;20030;-67
2021/10/19 03:58:00;;;;;;;4.23;2.40;;;;;;;3.16;75.11;101388.66;5010226;28;20303;-65
2021/10/19 04:00:25;;;;;;;3.23;2.20;;;;;;;3.17;74.71;101388.56;5011999;28;20037;-68
2021/10/19 04:02:51;;;;;;;4.63;1.53;;;;;;;3.15;74.66;101381.72;5011945;28;20077;-69
2021/10/19 04:05:16;;;;;;;2.97;1.70;;;;;;;3.18;74.53;101398.19;5010666;28;20037;-66
2021/10/19 04:07:43;;;;;;;2.87;1.50;;;;;;;3.10;74.49;101389.91;5011788;28;20065;-70
2021/10/19 04:10:08;;;;;;;1.93;1.33;;;;;;;3.07;74.33;101390.97;5011923;28;20465;-69
2021/10/19 04:12:34;;;;;;;4.50;1.63;;;;;;;3.06;74.98;101385.81;5010997;28;20355;-66
2021/10/19 04:14:59;;;;;;;2.27;1.50;;;;;;;3.12;74.44;101398.56;5015933;28;20030;-70
2021/10/19 04:17:24;;;;;;;1.80;1.53;;;;;;;3.14;74.28;101401.94;5015562;28;20125;-69
2021/10/19 04:19:50;;;;;;;3.63;1.20;;;;;;;3.12;74.00;101401.19;5014773;28;20108;-74
2021/10/19 04:22:15;;;;;;;2.00;1.70;;;;;;;3.05;74.18;101400.75;5015491;28;20057;-69
2021/10/19 04:24:41;;;;;;;2.30;2.07;;;;;;;3.06;74.50;101412.13;5015577;28;20489;-68
2021/10/19 04:27:06;;;;;;;2.13;1.77;;;;;;;3.00;74.23;101409.88;5014492;28;20041;-68
2021/10/19 04:29:32;;;;;;;3.50;1.60;;;;;;;2.94;74.11;101416.38;5015734;28;20057;-74
2021/10/19 04:31:57;;;;;;;1.87;1.67;;;;;;;2.95;74.37;101407.56;5015973;28;20053;-72
2021/10/19 04:34:23;;;;;;;2.03;1.67;;;;;;;2.93;74.45;101417.34;5015411;28;20080;-71
2021/10/19 04:36:48;;;;;;;3.80;2.53;;;;;;;2.89;74.49;101417.59;5015498;28;20481;-71
2021/10/19 04:39:14;;;;;;;4.63;1.20;;;;;;;2.91;74.61;101421.00;5015526;28;20044;-71
2021/10/19 04:41:44;;;;;;;2.73;1.33;;;;;;;2.81;74.41;101404.94;5013974;28;20405;-71
2021/10/19 04:44:10;;;;;;;1.50;1.40;;;;;;;2.85;74.35;101411.69;5015930;28;20042;-72
2021/10/19 04:46:36;;;;;;;2.30;1.73;;;;;;;2.89;74.45;101428.13;5015441;28;20307;-70
2021/10/19 04:49:01;;;;;;;1.57;1.47;;;;;;;2.89;74.35;101431.63;5015239;28;20704;-69
2021/10/19 04:51:29;;;;;;;2.47;1.73;;;;;;;2.95;74.79;101436.50;5013861;28;20524;-69
2021/10/19 04:53:55;;;;;;;2.23;1.70;;;;;;;2.91;74.78;101423.63;5014875;28;20485;-67
2021/10/19 04:56:20;;;;;;;1.73;1.37;;;;;;;2.90;74.69;101430.69;5013655;28;20335;-66
2021/10/19 04:58:46;;;;;;;2.13;1.50;;;;;;;2.84;74.50;101431.03;5015205;28;20042;-69
2021/10/19 05:01:11;;;;;;;2.73;1.67;;;;;;;2.79;74.89;101425.25;5014890;28;20108;-69
2021/10/19 05:03:39;;;;;;;1.70;1.57;;;;;;;2.85;74.96;101432.75;5014699;28;20064;-66
2021/10/19 05:06:05;;;;;;;3.70;1.73;;;;;;;2.77;74.62;101435.84;5014728;28;20045;-71
2021/10/19 05:08:30;;;;;;;2.47;1.90;;;;;;;2.80;74.71;101437.44;5014615;28;20072;-69
2021/10/19 05:10:56;;;;;;;3.73;2.27;;;;;;;2.75;75.11;101437.75;5014784;28;20034;-72
2021/10/19 05:13:24;;;;;;;3.90;1.43;;;;;;;2.68;74.94;101430.34;5013695;28;20048;-68
2021/10/19 05:15:50;;;;;;;2.63;1.70;;;;;;;2.76;74.96;101443.84;5013459;28;20418;-69
2021/10/19 05:18:15;;;;;;;3.30;1.80;;;;;;;2.80;75.12;101446.19;5014491;28;20042;-68
2021/10/19 05:20:40;;;;;;;2.27;1.97;;;;;;;2.84;75.16;101446.00;5014952;28;20065;-69
2021/10/19 05:23:06;;;;;;;1.70;1.60;;;;;;;2.95;74.53;101454.06;5015624;28;20029;-67
2021/10/19 05:25:31;;;;;;;3.33;1.73;;;;;;;2.88;74.48;101448.31;5014866;28;20029;-67
2021/10/19 05:27:56;;;;;;;3.10;1.93;;;;;;;2.94;74.44;101458.50;5014734;28;20084;-69
2021/10/19 05:30:23;;;;;;;3.07;1.70;;;;;;;2.93;74.83;101450.69;5014305;28;20046;-71
2021/10/19 05:32:48;;;;;;;6.13;2.20;;;;;;;2.97;74.93;101458.28;5014155;28;20069;-70
2021/10/19 05:35:13;;;;;;;2.07;1.70;;;;;;;2.99;74.47;101460.81;5012609;28;20364;-68
2021/10/19 05:37:39;;;;;;;2.30;2.10;;;;;;;3.07;74.43;101461.19;5014165;28;20052;-71
2021/10/19 05:40:05;;;;;;;6.03;2.13;;;;;;;3.08;74.81;101462.88;5013775;28;20576;-67
2021/10/19 05:42:31;;;;;;;4.40;2.03;;;;;;;3.07;74.72;101469.91;5012824;28;20042;-72
2021/10/19 05:44:56;;;;;;;5.60;2.30;;;;;;;3.02;74.87;101465.88;5014311;28;20261;-70
2021/10/19 05:47:22;;;;;;;5.80;2.00;;;;;;;3.04;74.41;101479.78;5013957;28;20048;-65
2021/10/19 05:49:47;;;;;;;2.87;1.50;;;;;;;3.00;73.85;101487.03;5012613;28;20485;-65
2021/10/19 05:52:13;;;;;;;2.47;1.70;;;;;;;2.97;73.85;101483.75;5013606;28;20038;-67
2021/10/19 05:54:38;;;;;;;2.27;1.63;;;;;;;2.97;74.09;101483.75;5013525;28;20040;-62
2021/10/19 05:57:03;;;;;;;2.43;1.80;;;;;;;2.98;73.91;101490.72;5013475;28;20477;-66
2021/10/19 05:59:29;;;;;;;2.90;1.67;;;;;;;2.92;73.37;101491.09;5013761;28;20072;-65
2021/10/19 06:01:55;;;;;;;3.97;1.60;;;;;;;2.78;73.01;101487.53;5014104;28;20057;-66
2021/10/19 06:04:21;;;;;;;4.80;2.60;;;;;;;2.68;74.61;101504.81;5014860;28;20467;-68
2021/10/19 06:06:58;;;;;;;4.57;1.67;;;;;;;2.61;74.66;101508.78;5016250;28;20352;-68
2021/10/19 06:09:24;;;;;;;2.37;1.87;;;;;;;2.45;75.68;101505.38;5016530;28;20041;-69
2021/10/19 06:11:50;;;;;;;2.70;1.70;;;;;;;2.44;75.79;101506.31;5016006;28;20280;-69
2021/10/19 06:14:16;;;;;;;2.53;1.77;;;;;;;2.37;76.24;101505.84;5015328;28;20265;-70
2021/10/19 06:16:43;;;;;;;3.47;2.20;;;;;;;2.41;74.84;101511.75;5014221;28;20791;-66
2021/10/19 06:19:08;;;;;;;2.10;1.73;;;;;;;2.45;74.29;101518.50;5013782;28;20301;-71
2021/10/19 06:21:34;;;;;;;2.03;1.83;;;;;;;2.32;72.96;101507.06;5013904;28;20760;-64
2021/10/19 06:23:59;;;;;;;1.73;1.50;;;;;;;2.30;71.72;101529.91;5012482;28;20386;-64
2021/10/19 06:26:24;;;;;;;5.73;1.30;;;;;;;2.19;71.48;101527.94;5011779;28;20066;-66
2021/10/19 06:28:50;;;;;;;2.13;1.50;;;;;;;2.23;71.90;101528.59;5012876;28;20495;-63
2021/10/19 06:31:15;;;;;;;1.63;1.47;;;;;;;2.31;71.79;101544.75;5013049;28;20069;-66
2021/10/19 06:33:41;;;;;;;2.90;1.97;;;;;;;2.38;71.72;101549.59;5012831;28;20044;-66
2021/10/19 06:36:06;;;;;;;2.23;1.40;;;;;;;2.39;71.03;101540.75;5009518;28;20493;-64
2021/10/19 06:38:32;;;;;;;8.83;2.97;;;;;;;2.43;70.01;101550.16;5012593;28;20095;-68
2021/10/19 06:40:58;;;;;;;6.43;2.13;;;;;;;2.38;70.77;101517.19;5012015;28;20051;-62
2021/10/19 06:43:23;;;;;;;2.80;1.57;;;;;;;2.68;69.46;101546.06;5012969;28;20056;-65
2021/10/19 06:45:49;;;;;;;3.67;1.70;;;;;;;2.74;69.06;101545.69;5011511;28;20038;-66
2021/10/19 06:48:14;;;;;;;3.10;1.50;;;;;;;2.54;67.63;101525.84;5012975;28;20413;-65
2021/10/19 06:50:39;;;;;;;3.10;1.30;;;;;;;2.51;67.70;101540.94;5012962;28;20120;-63
2021/10/19 06:53:05;;;;;;;5.50;2.93;;;;;;;2.52;67.49;101553.16;5012760;28;20623;-64
2021/10/19 06:55:30;;;;;;;2.57;1.70;;;;;;;2.56;67.70;101547.63;5012777;28;20049;-64
2021/10/19 06:57:56;;;;;;;2.43;1.43;;;;;;;2.64;66.41;101571.69;5012399;28;20042;-65
2021/10/19 07:00:21;;;;;;;3.13;1.40;;;;;;;2.53;67.11;101547.81;5012984;28;20527;-66
2021/10/19 07:02:47;;;;;;;2.80;1.60;;;;;;;2.56;66.12;101563.41;5013444;28;20144;-64
2021/10/19 07:05:13;;;;;;;1.77;1.17;;;;;;;2.58;66.68;101566.78;5013446;28;20044;-65
2021/10/19 07:07:41;;;;;;;1.67;1.30;;;;;;;2.58;66.59;101585.19;5012728;28;20489;-68
2021/10/19 07:10:07;;;;;;;2.47;1.60;;;;;;;2.62;65.99;101583.25;5012480;28;20371;-65
2021/10/19 07:12:36;;;;;;;3.17;1.70;;;;;;;2.57;66.00;101591.38;5011788;28;20295;-63
2021/10/19 07:15:01;;;;;;;3.30;1.67;;;;;;;2.34;65.51;101547.22;5012237;28;20269;-69
2021/10/19 07:17:27;;;;;;;2.03;1.57;;;;;;;2.45;65.81;101565.84;5012084;28;20140;-68
2021/10/19 07:19:52;;;;;;;3.30;1.87;;;;;;;2.48;64.97;101587.53;5010705;28;20026;-65
2021/10/19 07:22:18;;;;;;;2.30;1.50;;;;;;;2.30;65.29;101561.47;5012889;28;20029;-67
2021/10/19 07:24:43;;;;;;;2.43;1.77;;;;;;;2.33;65.44;101583.19;5013240;28;20040;-65
2021/10/19 07:27:09;;;;;;;4.47;1.70;;;;;;;2.37;65.47;101589.94;5011319;28;20038;-66
2021/10/19 07:29:34;;;;;;;5.00;1.90;;;;;;;2.29;65.38;101589.53;5011789;28;20042;-67
2021/10/19 07:32:00;;;;;;;3.73;1.87;;;;;;;2.20;65.90;101583.97;5011772;28;20068;-62
2021/10/19 07:34:25;;;;;;;4.47;2.40;;;;;;;2.13;66.29;101583.50;5010556;28;20030;-67
2021/10/19 07:36:53;;;;;;;5.33;1.93;;;;;;;2.15;66.34;101594.75;5011773;28;20085;-72
2021/10/19 07:39:18;;;;;;;4.23;1.70;;;;;;;2.09;66.44;101605.63;5011766;28;20121;-64
2021/10/19 07:41:44;;;;;;;2.13;1.60;;;;;;;1.99;66.64;101600.03;5012005;28;20351;-69
2021/10/19 07:44:09;;;;;;;2.97;1.80;;;;;;;1.90;67.01;101611.06;5012120;28;20065;-68
2021/10/19 07:46:35;;;;;;;2.23;1.67;;;;;;;1.82;67.48;101615.91;5011931;28;20034;-67
2021/10/19 07:49:02;;;;;;;7.97;2.10;;;;;;;1.87;68.11;101619.13;5014903;28;20050;-67
2021/10/19 07:51:27;;;;;;;7.17;1.93;;;;;;;1.98;66.14;101614.09;5015723;28;20038;-68
2021/10/19 07:53:53;;;;;;;3.07;1.70;;;;;;;1.91;66.50;101601.41;5016228;28;20279;-65
2021/10/19 07:56:20;;;;;;;6.40;1.87;;;;;;;2.01;67.19;101610.44;5016114;28;20557;-63
2021/10/19 07:58:47;;;;;;;8.07;1.97;;;;;;;2.23;67.27;101621.44;5016147;28;20034;-66
2021/10/19 08:01:12;;;;;;;5.30;2.07;;;;;;;2.34;66.92;101616.41;5014421;28;20289;-66
2021/10/19 08:03:38;;;;;;;2.20;1.53;;;;;;;2.38;64.27;101622.34;5015898;28;20839;-68
2021/10/19 08:06:03;;;;;;;3.17;1.47;;;;;;;2.42;64.13;101626.47;5016547;28;20114;-68
2021/10/19 08:08:29;;;;;;;2.73;1.83;;;;;;;2.53;64.35;101625.84;5017363;28;20030;-72
2021/10/19 08:11:04;;;;;;;;;;;;;;;;;;;;;
2021/10/19 08:13:32;;;;;;;2.63;1.60;;;;;;;2.83;61.85;101625.81;5017752;28;20045;-65
2021/10/19 08:15:57;;;;;;;3.97;1.60;;;;;;;3.10;60.33;101624.16;5016929;28;20264;-64
2021/10/19 08:18:23;;;;;;;1.97;1.77;;;;;;;3.31;59.75;101627.25;5016575;28;20354;-65
2021/10/19 08:20:48;;;;;;;2.20;1.70;;;;;;;3.31;60.07;101625.47;5016283;28;20044;-67
2021/10/19 08:23:14;;;;;;;3.77;1.50;;;;;;;3.30;60.02;101634.31;5015393;28;20041;-73
2021/10/19 08:25:40;;;;;;;1.77;1.60;;;;;;;3.21;59.83;101636.69;5015434;28;20038;-65
2021/10/19 08:28:06;;;;;;;4.63;1.60;;;;;;;3.20;60.56;101632.34;5015581;28;20034;-69
2021/10/19 08:30:32;;;;;;;4.23;1.53;;;;;;;3.24;60.21;101644.38;5015043;28;20272;-66
2021/10/19 08:33:01;;;;;;;6.30;2.60;;;;;;;3.21;60.67;101650.69;5014794;28;20269;-70
2021/10/19 08:35:31;;;;;;;3.45;1.52;;;;;;;3.19;60.45;101657.84;5015324;28;20272;-66
2021/10/19 08:37:56;;;;;;;11.50;1.97;;;;;;;3.15;59.50;101661.56;5013456;28;20042;-66
2021/10/19 08:40:25;;;;;;;1.80;1.53;;;;;;;2.98;58.44;101643.34;5015037;28;20782;-70
2021/10/19 08:42:53;;;;;;;4.45;1.60;;;;;;;2.94;59.25;101636.56;5012910;28;20033;-66
2021/10/19 08:45:25;;;;;;;5.70;1.83;;;;;;;3.02;60.31;101663.25;5013989;28;20141;-70
2021/10/19 08:47:55;;;;;;;1.57;1.40;;;;;;;2.89;60.42;101655.25;5015055;28;20041;-69
2021/10/19 08:50:24;;;;;;;3.17;1.83;;;;;;;2.97;60.23;101662.69;5015228;28;20279;-70
2021/10/19 08:52:50;;;;;;;5.65;1.75;;;;;;;2.85;60.07;101660.75;5015434;28;20292;-68
2021/10/19 08:55:16;;;;;;;7.90;2.57;;;;;;;3.03;60.06;101667.56;5015141;28;20045;-67
2021/10/19 08:57:42;;;;;;;3.40;1.67;;;;;;;3.13;59.88;101679.22;5015708;28;20354;-67
2021/10/19 09:00:10;;;;;;;3.87;1.93;;;;;;;3.21;60.40;101671.75;5015116;28;20273;-67
2021/10/19 09:02:41;;;;;;;9.87;2.87;;;;;;;3.38;59.65;101675.97;5014672;28;20058;-64
2021/10/19 09:05:14;;;;;;;5.10;2.67;;;;;;;3.49;59.42;101691.13;5015369;28;20648;-70
2021/10/19 09:07:40;;;;;;;6.20;1.80;;;;;;;3.45;58.99;101679.91;4999437;28;20273;-65
2021/10/19 09:10:15;;;;;;;5.60;2.30;;;;;;;3.63;58.47;101699.00;5014765;28;20323;-64
2021/10/19 09:12:50;;;;;;;2.40;1.80;;;;;;;3.59;59.00;101681.69;5014726;28;20269;-66
2021/10/19 09:15:21;;;;;;;2.47;1.90;;;;;;;3.71;58.46;101702.00;5013195;28;20744;-68
2021/10/19 09:17:46;;;;;;;5.50;1.63;;;;;;;3.68;58.66;101692.50;5014747;28;20478;-64
2021/10/19 09:20:13;;;;;;;4.00;1.77;;;;;;;3.78;57.39;101708.59;5014438;28;20269;-68
2021/10/19 09:22:49;;;;;;;5.80;2.50;;;;;;;3.60;56.18;101693.94;5014737;28;20041;-62
2021/10/19 09:25:26;;;;;;;7.40;2.70;;;;;;;3.59;55.43;101705.41;5013457;28;20276;-67
2021/10/19 09:27:52;;;;;;;1.33;1.23;;;;;;;3.42;54.88;101694.09;5013414;28;20288;-69
2021/10/19 09:30:30;;;;;;;2.57;1.20;;;;;;;3.46;53.43;101707.09;5013834;28;20269;-71
2021/10/19 09:32:55;;;;;;;3.43;1.87;;;;;;;3.34;52.24;101693.75;5014020;28;20276;-69
2021/10/19 09:35:21;;;;;;;4.27;1.67;;;;;;;3.36;52.67;101702.38;5013570;28;20744;-68
2021/10/19 09:38:19;;;;;;;3.33;2.43;;;;;;;3.50;54.32;101717.38;5015042;28;20126;-73
2021/10/19 09:40:47;;;;;;;2.22;1.88;;;;;;;3.43;53.00;101727.41;5001872;28;20135;-70
2021/10/19 09:43:16;;;;;;;2.83;2.00;;;;;;;3.35;53.15;101713.00;5013864;28;20401;-67
2021/10/19 09:45:44;;;;;;;3.88;1.80;;;;;;;3.36;52.31;101720.81;5013730;28;20040;-62
2021/10/19 09:48:16;;;;;;;3.30;1.80;;;;;;;3.39;51.76;101728.53;5014121;28;20192;-65
2021/10/19 09:50:43;;;;;;;3.37;1.83;;;;;;;3.45;52.42;101737.00;5013824;28;20038;-63
2021/10/19 09:53:15;;;;;;;3.23;1.73;;;;;;;3.38;50.81;101729.47;5013868;28;20261;-63
2021/10/19 09:55:44;;;;;;;6.27;3.17;;;;;;;3.30;50.39;101731.72;5013572;28;20279;-65
2021/10/19 09:58:10;;;;;;;2.70;1.80;;;;;;;3.21;49.34;101745.44;5011983;28;20304;-63
2021/10/19 10:00:37;;;;;;;4.47;1.77;;;;;;;3.27;49.03;101728.44;5013283;28;20780;-61
2021/10/19 10:03:04;;;;;;;4.33;1.70;;;;;;;3.47;49.33;101735.13;5013429;28;20049;-62
2021/10/19 10:05:34;;;;;;;3.10;1.83;;;;;;;3.63;48.43;101733.25;5013800;28;20795;-63
2021/10/19 10:08:00;;;;;;;2.50;1.63;;;;;;;3.63;48.74;101733.25;5012046;28;20335;-62
2021/10/19 10:10:27;;;;;;;3.00;2.00;;;;;;;3.77;48.90;101732.41;5012532;28;20284;-60
2021/10/19 10:13:22;;;;;;;5.33;2.20;;;;;;;3.80;49.43;101722.53;5013107;28;20257;-64
2021/10/19 10:15:48;;;;;;;2.27;1.60;;;;;;;4.11;48.63;101736.41;5000605;28;20315;-62
2021/10/19 10:18:13;;;;;;;6.20;2.53;;;;;;;4.16;47.60;101739.59;5013098;28;20328;-65
2021/10/19 10:20:44;;;;;;;4.27;1.60;;;;;;;4.19;48.72;101728.84;5011856;28;20449;-62
2021/10/19 10:23:11;;;;;;;4.87;2.10;;;;;;;4.27;47.71;101734.47;5012721;28;20030;-62
2021/10/19 10:25:38;;;;;;;2.50;1.70;;;;;;;4.35;48.13;101743.59;5012354;28;20273;-62
2021/10/19 10:28:16;;;;;;;4.40;2.50;;;;;;;4.48;48.81;101730.47;5013121;28;20269;-62
2021/10/19 10:30:42;;;;;;;2.85;2.45;;;;;;;4.66;47.46;101750.38;5013520;28;20277;-61
2021/10/19 10:33:08;;;;;;;1.63;1.20;;;;;;;4.33;47.65;101724.38;5012013;28;20048;-61
2021/10/19 10:35:41;;;;;;;4.53;1.83;;;;;;;4.43;46.77;101753.66;5013184;28;20040;-62
2021/10/19 10:38:06;;;;;;;2.90;1.70;;;;;;;4.30;46.57;101729.00;5012622;28;20387;-68
2021/10/19 10:40:33;;;;;;;2.73;1.30;;;;;;;4.18;46.72;101719.25;5012831;28;20279;-63
2021/10/19 10:43:00;;;;;;;7.73;1.70;;;;;;;4.29;46.80;101737.84;5012884;28;20569;-68
2021/10/19 10:45:34;;;;;;;3.73;1.40;;;;;;;4.14;47.12;101750.25;5012522;28;20356;-65
2021/10/19 10:48:03;;;;;;;2.20;1.70;;;;;;;3.98;47.09;101741.59;5012613;28;20312;-61
2021/10/19 10:50:32;;;;;;;6.40;1.87;;;;;;;4.07;46.97;101735.75;5011911;28;20288;-63
2021/10/19 10:53:09;;;;;;;3.88;1.70;;;;;;;4.28;47.16;101752.00;5012311;28;20296;-60
2021/10/19 10:55:39;;;;;;;3.50;1.47;;;;;;;4.27;46.43;101752.94;5012406;28;20401;-64
2021/10/19 10:58:05;;;;;;;1.93;1.50;;;;;;;4.02;46.71;101743.94;5012222;28;20819;-62
2021/10/19 11:00:34;;;;;;;2.63;2.00;;;;;;;4.00;48.12;101732.66;5011350;28;20320;-63
2021/10/19 11:03:15;;;;;;;3.63;1.40;;;;;;;4.30;46.77;101750.09;5012090;28;20319;-67
2021/10/19 11:05:58;;;;;;;10.10;1.40;;;;;;;4.37;46.62;101751.41;5012455;28;20092;-63
2021/10/19 11:08:35;;;;;;;4.90;1.80;;;;;;;4.18;45.93;101761.44;5012348;28;20303;-68
2021/10/19 11:11:10;;;;;;;4.00;2.00;;;;;;;4.02;46.75;101749.22;5009733;28;20277;-68
2021/10/19 11:13:58;;;;;;;2.20;1.40;;;;;;;4.02;45.73;101753.63;5012169;28;20353;-68
2021/10/19 11:16:28;;;;;;;3.13;1.50;;;;;;;4.02;45.96;101758.91;5012208;28;20265;-70
2021/10/19 11:19:54;;;;;;;2.57;1.47;;;;;;;4.03;46.79;101764.09;5011851;28;20268;-68
2021/10/19 11:22:32;;;;;;;4.13;1.50;;;;;;;3.87;46.40;101744.91;4872425;29;20805;-64
2021/10/19 11:25:04;;;;;;;2.97;1.83;;;;;;;4.10;46.49;101767.19;4882623;29;20758;-65
2021/10/19 11:27:32;;;;;;;4.20;1.73;;;;;;;4.11;45.34;101757.50;4913491;29;20295;-66
2021/10/19 11:30:02;;;;;;;2.97;1.63;;;;;;;4.07;45.26;101753.38;4913921;29;20264;-69
2021/10/19 11:32:31;;;;;;;5.57;2.00;;;;;;;4.11;45.43;101750.44;4945319;28;20276;-65
2021/10/19 11:34:56;;;;;;;5.97;3.08;;;;;;;3.93;44.95;101736.63;5011280;28;20264;-66